Time;durP1;ratioP1;P1;durP2;ratioP2;P2;SDS_P1;SDS_P2;PMS_P1;PMS_P2;Temp;Humidity;BMP_temperature;BMP_pressure;BME280_temperature;BME280_humidity;BME280_pressure;Samples;Min_cycle;Max_cycle;Signal;HPM_P1;HPM_P2
2023/03/21 00:00:42;;;;;;;6.18;5.57;;;8.30;99.90;;;;;;5037704;28;20201;-76
2023/03/21 00:03:09;;;;;;;6.30;5.65;;;8.30;99.90;;;;;;5031282;28;20621;-76
2023/03/21 00:05:44;;;;;;;6.13;5.53;;;8.40;99.90;;;;;;5039125;28;20187;-76
2023/03/21 00:08:10;;;;;;;6.85;5.82;;;8.30;99.90;;;;;;5033724;28;20659;-76
2023/03/21 00:10:36;;;;;;;6.43;5.82;;;8.30;99.90;;;;;;5038179;28;20204;-75
2023/03/21 00:13:02;;;;;;;6.28;5.65;;;8.30;99.90;;;;;;5027270;28;20701;-76
2023/03/21 00:15:28;;;;;;;6.90;6.20;;;8.40;99.90;;;;;;5028380;28;20490;-77
2023/03/21 00:18:02;;;;;;;8.93;6.03;;;8.40;99.90;;;;;;5024143;28;20209;-76
2023/03/21 00:20:29;;;;;;;6.78;6.07;;;8.30;99.90;;;;;;5030878;28;20212;-76
2023/03/21 00:22:54;;;;;;;6.40;5.72;;;8.30;99.90;;;;;;5027714;28;20704;-76
2023/03/21 00:25:20;;;;;;;6.82;6.15;;;8.20;99.90;;;;;;5033075;28;20268;-76
2023/03/21 00:27:45;;;;;;;7.25;5.78;;;8.20;99.90;;;;;;5033174;28;20185;-76
2023/03/21 00:30:12;;;;;;;5.68;5.22;;;8.10;99.90;;;;;;5025011;28;20172;-77
2023/03/21 00:32:37;;;;;;;5.80;5.32;;;8.10;99.90;;;;;;5026214;28;20661;-77
2023/03/21 00:35:03;;;;;;;6.25;5.72;;;8.10;99.90;;;;;;5030682;28;20203;-76
2023/03/21 00:37:28;;;;;;;5.72;5.13;;;8.10;99.90;;;;;;5027990;28;20606;-77
2023/03/21 00:39:54;;;;;;;6.38;5.70;;;8.00;99.90;;;;;;5032191;28;20671;-77
2023/03/21 00:42:20;;;;;;;6.07;5.50;;;7.90;99.90;;;;;;5033125;28;20199;-75
2023/03/21 00:44:45;;;;;;;7.25;6.65;;;8.00;99.90;;;;;;5031965;28;20187;-77
2023/03/21 00:47:11;;;;;;;5.95;5.45;;;8.00;99.90;;;;;;5026417;28;20181;-76
2023/03/21 00:49:37;;;;;;;6.15;5.55;;;8.00;99.90;;;;;;5025046;28;20195;-76
2023/03/21 00:52:06;;;;;;;7.00;6.40;;;8.00;99.90;;;;;;5029073;28;20203;-77
2023/03/21 00:54:36;;;;;;;13.18;7.82;;;8.10;99.90;;;;;;5036048;28;20176;-76
2023/03/21 00:57:02;;;;;;;7.53;6.72;;;8.20;99.90;;;;;;5027780;28;20203;-76
2023/03/21 00:59:28;;;;;;;7.25;6.55;;;8.20;99.90;;;;;;5037384;28;20215;-76
2023/03/21 01:01:54;;;;;;;6.97;6.28;;;8.20;99.90;;;;;;5033011;28;20206;-75
2023/03/21 01:04:25;;;;;;;6.57;5.97;;;8.20;99.90;;;;;;5031949;28;20181;-75
2023/03/21 01:06:52;;;;;;;6.55;5.95;;;8.30;99.90;;;;;;5027721;28;20184;-75
2023/03/21 01:09:21;;;;;;;6.53;5.93;;;8.40;99.90;;;;;;5025045;28;20234;-75
2023/03/21 01:11:49;;;;;;;8.30;5.80;;;8.40;99.90;;;;;;5028874;28;20266;-75
2023/03/21 01:14:16;;;;;;;6.82;6.22;;;8.40;99.90;;;;;;5031474;28;20184;-76
2023/03/21 01:16:42;;;;;;;6.03;5.43;;;8.30;99.90;;;;;;5034211;28;20200;-75
2023/03/21 01:19:10;;;;;;;6.50;5.90;;;8.20;99.90;;;;;;5025246;28;20189;-75
2023/03/21 01:21:36;;;;;;;8.05;7.25;;;8.30;99.90;;;;;;5036430;28;20207;-76
2023/03/21 01:24:02;;;;;;;7.25;6.55;;;8.10;99.90;;;;;;5030073;28;20180;-77
2023/03/21 01:26:28;;;;;;;7.40;6.40;;;8.20;99.90;;;;;;5019779;28;20204;-76
2023/03/21 01:28:53;;;;;;;7.63;6.88;;;8.20;99.90;;;;;;5029781;28;20192;-77
2023/03/21 01:31:19;;;;;;;7.57;6.88;;;8.30;99.90;;;;;;5031092;28;20567;-76
2023/03/21 01:33:45;;;;;;;6.88;6.28;;;8.30;99.90;;;;;;5032659;28;20643;-76
2023/03/21 01:36:15;;;;;;;8.75;7.60;;;8.30;99.90;;;;;;5025278;28;20545;-76
2023/03/21 01:38:42;;;;;;;7.80;6.68;;;8.30;99.90;;;;;;5033267;28;20213;-76
2023/03/21 01:41:25;;;;;;;7.45;6.75;;;8.40;99.90;;;;;;5025743;28;20231;-76
2023/03/21 01:43:51;;;;;;;6.93;6.32;;;8.40;99.90;;;;;;5028243;28;20704;-76
2023/03/21 01:46:39;;;;;;;6.32;5.72;;;8.40;99.90;;;;;;5026876;28;20185;-76
2023/03/21 01:49:23;;;;;;;9.13;5.63;;;8.40;99.90;;;;;;5027645;28;20549;-76
2023/03/21 01:51:56;;;;;;;7.13;6.38;;;8.40;99.90;;;;;;5029479;28;20677;-75
2023/03/21 01:54:31;;;;;;;6.50;5.90;;;8.40;99.90;;;;;;5027546;28;20270;-75
2023/03/21 01:57:00;;;;;;;6.78;6.07;;;8.50;99.90;;;;;;5026344;28;20211;-75
2023/03/21 01:59:33;;;;;;;6.03;5.53;;;8.50;99.90;;;;;;5037640;28;20250;-76
2023/03/21 02:02:06;;;;;;;7.43;6.22;;;8.50;99.90;;;;;;5030133;28;20622;-76
2023/03/21 02:04:34;;;;;;;7.30;6.60;;;8.50;99.90;;;;;;5025450;28;20177;-76
2023/03/21 02:07:03;;;;;;;6.68;6.10;;;8.40;99.90;;;;;;5028320;28;20654;-76
2023/03/21 02:09:33;;;;;;;6.78;6.18;;;8.40;99.90;;;;;;5031414;28;20306;-76
2023/03/21 02:12:00;;;;;;;11.13;5.88;;;8.40;99.90;;;;;;5030153;28;20227;-76
2023/03/21 02:14:32;;;;;;;6.07;5.22;;;8.40;99.90;;;;;;5026832;28;20189;-76
2023/03/21 02:17:24;;;;;;;7.72;5.63;;;8.40;99.90;;;;;;5025001;28;20695;-76
2023/03/21 02:20:12;;;;;;;5.63;5.13;;;8.50;99.90;;;;;;5021046;28;21266;-76
2023/03/21 02:23:01;;;;;;;5.88;5.28;;;8.50;99.90;;;;;;5036513;28;20196;-75
2023/03/21 02:25:45;;;;;;;8.23;6.03;;;8.50;99.90;;;;;;5033224;28;20184;-76
2023/03/21 02:28:37;;;;;;;6.72;5.72;;;8.40;99.90;;;;;;5022267;28;20239;-76
2023/03/21 02:31:03;;;;;;;5.20;4.80;;;8.40;99.90;;;;;;5035931;28;20566;-77
2023/03/21 02:33:57;;;;;;;5.93;5.43;;;8.30;99.90;;;;;;5033482;28;20253;-77
2023/03/21 02:36:33;;;;;;;5.45;4.90;;;8.30;99.90;;;;;;5026781;28;20192;-76
2023/03/21 02:39:13;;;;;;;7.50;4.68;;;8.40;99.90;;;;;;5029752;28;20246;-76
2023/03/21 02:41:53;;;;;;;5.72;5.13;;;8.40;99.90;;;;;;5020309;28;20680;-75
2023/03/21 02:44:32;;;;;;;4.97;4.57;;;8.40;99.90;;;;;;5026239;28;20181;-75
2023/03/21 02:47:26;;;;;;;5.85;5.00;;;8.50;99.90;;;;;;5033338;28;20184;-75
2023/03/21 02:50:04;;;;;;;6.35;4.80;;;8.40;99.90;;;;;;5016422;28;20196;-76
2023/03/21 02:52:32;;;;;;;5.28;4.78;;;8.40;99.90;;;;;;5026356;28;20202;-76
2023/03/21 02:54:59;;;;;;;6.03;5.45;;;8.40;99.90;;;;;;5024333;28;20524;-76
2023/03/21 02:57:25;;;;;;;4.93;4.53;;;8.40;99.90;;;;;;5021630;28;20209;-76
2023/03/21 02:59:53;;;;;;;5.70;5.13;;;8.40;99.90;;;;;;5019661;28;20203;-76
2023/03/21 03:02:22;;;;;;;7.50;4.40;;;8.40;99.90;;;;;;5022909;28;20224;-76
2023/03/21 03:04:48;;;;;;;5.22;4.82;;;8.40;99.90;;;;;;5023562;28;20219;-76
2023/03/21 03:07:30;;;;;;;6.30;5.25;;;8.40;99.90;;;;;;5028004;28;20224;-75
2023/03/21 03:10:16;;;;;;;5.10;4.70;;;8.40;99.90;;;;;;5023772;28;20233;-76
2023/03/21 03:13:20;;;;;;;5.35;4.95;;;8.40;99.90;;;;;;5026110;28;20183;-76
2023/03/21 03:16:01;;;;;;;5.45;4.95;;;8.40;99.90;;;;;;5027200;28;20195;-76
2023/03/21 03:18:40;;;;;;;5.68;4.68;;;8.40;99.90;;;;;;5021194;28;20201;-76
2023/03/21 03:21:38;;;;;;;5.55;5.05;;;8.30;99.90;;;;;;5033505;28;20699;-75
2023/03/21 03:24:06;;;;;;;5.40;4.90;;;8.40;99.90;;;;;;5029208;28;20599;-75
2023/03/21 03:26:45;;;;;;;5.25;4.75;;;8.40;99.90;;;;;;5022412;28;20555;-75
2023/03/21 03:29:17;;;;;;;4.82;4.45;;;8.30;99.90;;;;;;5029732;28;20267;-75
2023/03/21 03:31:49;;;;;;;5.10;4.60;;;8.40;99.90;;;;;;5022126;28;20192;-75
2023/03/21 03:34:20;;;;;;;7.05;4.93;;;8.40;99.90;;;;;;5029079;28;20649;-76
2023/03/21 03:36:55;;;;;;;5.22;4.70;;;8.40;99.90;;;;;;5035271;28;20254;-75
2023/03/21 03:39:30;;;;;;;5.63;5.10;;;8.40;99.90;;;;;;5022939;28;20181;-76
2023/03/21 03:42:04;;;;;;;5.05;4.38;;;8.40;99.90;;;;;;5036152;28;20237;-75
2023/03/21 03:44:30;;;;;;;4.90;4.50;;;8.50;99.90;;;;;;5027643;28;20176;-73
2023/03/21 03:47:09;;;;;;;5.50;5.10;;;8.40;99.90;;;;;;5034121;28;20549;-75
2023/03/21 03:49:46;;;;;;;6.32;4.72;;;8.40;99.90;;;;;;5026461;28;20180;-76
2023/03/21 03:52:29;;;;;;;5.43;4.93;;;8.50;99.90;;;;;;5023924;28;20206;-77
2023/03/21 03:54:55;;;;;;;5.25;4.50;;;8.50;99.90;;;;;;5032114;28;20275;-76
2023/03/21 03:57:21;;;;;;;5.40;4.90;;;8.50;99.90;;;;;;5027689;28;20279;-76
2023/03/21 03:59:47;;;;;;;5.00;4.50;;;8.50;99.90;;;;;;5029490;28;20185;-76
2023/03/21 04:02:13;;;;;;;5.55;4.90;;;8.40;99.90;;;;;;5027620;28;20196;-76
2023/03/21 04:04:40;;;;;;;4.90;4.13;;;8.40;99.90;;;;;;5027983;28;20185;-75
2023/03/21 04:07:06;;;;;;;5.93;4.80;;;8.40;99.90;;;;;;5030004;28;20263;-76
2023/03/21 04:09:32;;;;;;;4.90;4.50;;;8.40;99.90;;;;;;5020851;28;20193;-75
2023/03/21 04:11:57;;;;;;;7.68;4.93;;;8.40;99.90;;;;;;5032004;28;20200;-75
2023/03/21 04:14:24;;;;;;;5.20;4.70;;;8.40;99.90;;;;;;5026245;28;20211;-75
2023/03/21 04:16:50;;;;;;;5.28;4.88;;;8.40;99.90;;;;;;5023211;28;20208;-75
2023/03/21 04:19:17;;;;;;;4.95;4.55;;;8.40;99.90;;;;;;5028984;28;20859;-75
2023/03/21 04:21:45;;;;;;;5.18;4.68;;;8.30;99.90;;;;;;5027925;28;20200;-76
2023/03/21 04:24:12;;;;;;;7.10;5.57;;;8.30;99.90;;;;;;5035842;28;20593;-75
2023/03/21 04:26:38;;;;;;;5.30;4.80;;;8.30;99.90;;;;;;5024430;28;20183;-76
2023/03/21 04:29:04;;;;;;;7.88;5.50;;;8.20;99.90;;;;;;5025393;28;20327;-76
2023/03/21 04:31:32;;;;;;;5.80;4.72;;;8.10;99.90;;;;;;5030037;28;20611;-76
2023/03/21 04:33:59;;;;;;;6.30;5.70;;;8.20;99.90;;;;;;5018764;28;20702;-76
2023/03/21 04:36:29;;;;;;;5.20;4.70;;;8.20;99.90;;;;;;5027336;28;20189;-75
2023/03/21 04:38:59;;;;;;;5.10;4.60;;;8.20;99.90;;;;;;5034651;28;20176;-76
2023/03/21 04:41:26;;;;;;;5.68;5.18;;;8.10;99.90;;;;;;5029860;28;20200;-74
2023/03/21 04:43:51;;;;;;;6.18;5.20;;;8.10;99.90;;;;;;5041747;28;20183;-74
2023/03/21 04:46:17;;;;;;;5.93;5.30;;;8.20;99.90;;;;;;5031995;28;20185;-74
2023/03/21 04:48:42;;;;;;;5.22;4.82;;;8.20;99.90;;;;;;5027701;28;20201;-74
2023/03/21 04:51:08;;;;;;;5.78;5.18;;;8.20;99.90;;;;;;5032998;28;20685;-74
2023/03/21 04:53:34;;;;;;;7.00;4.97;;;8.20;99.90;;;;;;5025875;28;20555;-77
2023/03/21 04:56:00;;;;;;;5.43;4.95;;;8.20;99.90;;;;;;5033214;28;20172;-76
2023/03/21 04:58:25;;;;;;;6.75;5.25;;;8.20;99.90;;;;;;5025526;28;20204;-75
2023/03/21 05:00:51;;;;;;;5.93;5.35;;;8.20;99.90;;;;;;5029835;28;20267;-75
2023/03/21 05:03:20;;;;;;;6.18;5.57;;;8.20;99.90;;;;;;5025306;28;20664;-75
2023/03/21 05:05:46;;;;;;;5.68;5.15;;;8.20;99.90;;;;;;5022265;28;20683;-75
2023/03/21 05:08:13;;;;;;;5.13;4.43;;;8.20;99.90;;;;;;5031900;28;20186;-77
2023/03/21 05:10:39;;;;;;;5.43;4.65;;;8.20;99.90;;;;;;5033933;28;20713;-77
2023/03/21 05:13:05;;;;;;;7.75;5.45;;;8.10;99.90;;;;;;5027954;28;20177;-76
2023/03/21 05:15:31;;;;;;;5.35;4.85;;;8.10;99.90;;;;;;5031538;28;20184;-77
2023/03/21 05:18:10;;;;;;;5.78;4.95;;;8.10;99.90;;;;;;5031310;28;20201;-75
2023/03/21 05:20:41;;;;;;;5.70;5.28;;;8.00;99.90;;;;;;5024972;28;20259;-75
2023/03/21 05:23:09;;;;;;;6.85;5.40;;;8.00;99.90;;;;;;5029290;28;20184;-75
2023/03/21 05:25:36;;;;;;;6.22;5.70;;;8.00;99.90;;;;;;5030386;28;20180;-75
2023/03/21 05:28:03;;;;;;;6.70;5.15;;;7.90;99.90;;;;;;5026124;28;20666;-75
2023/03/21 05:30:29;;;;;;;5.68;5.10;;;7.90;99.90;;;;;;5020739;28;20203;-75
2023/03/21 05:32:55;;;;;;;7.00;6.25;;;7.70;99.90;;;;;;5026021;28;20184;-75
2023/03/21 05:35:20;;;;;;;5.88;5.38;;;7.60;99.90;;;;;;5027509;28;20656;-75
2023/03/21 05:37:46;;;;;;;6.43;5.40;;;7.60;99.90;;;;;;5026374;28;20688;-77
2023/03/21 05:40:12;;;;;;;6.82;6.22;;;7.60;99.90;;;;;;5026589;28;20237;-76
2023/03/21 05:42:38;;;;;;;7.38;6.00;;;7.60;99.90;;;;;;5022164;28;20178;-77
2023/03/21 05:45:04;;;;;;;10.32;6.18;;;7.60;99.90;;;;;;5024994;28;20176;-76
2023/03/21 05:47:30;;;;;;;9.30;6.80;;;7.70;99.90;;;;;;5030806;28;20173;-77
2023/03/21 05:49:55;;;;;;;8.20;6.78;;;7.80;99.90;;;;;;5033218;28;20183;-76
2023/03/21 05:52:21;;;;;;;6.70;6.10;;;7.90;99.90;;;;;;5029038;28;20310;-76
2023/03/21 05:54:47;;;;;;;7.53;6.82;;;8.00;99.90;;;;;;5027175;28;20716;-75
2023/03/21 05:57:12;;;;;;;9.18;7.22;;;8.10;99.90;;;;;;5029022;28;20212;-75
2023/03/21 05:59:38;;;;;;;6.82;6.13;;;8.30;99.90;;;;;;5025262;28;20259;-75
2023/03/21 06:02:04;;;;;;;7.53;6.68;;;8.30;99.90;;;;;;5021249;28;21050;-75
2023/03/21 06:04:30;;;;;;;7.68;6.22;;;8.40;99.90;;;;;;5022459;28;20189;-76
2023/03/21 06:06:55;;;;;;;6.07;5.47;;;8.50;99.90;;;;;;5026911;28;20176;-77
2023/03/21 06:09:22;;;;;;;7.03;6.43;;;8.60;99.90;;;;;;5028954;28;20211;-76
2023/03/21 06:11:50;;;;;;;6.72;6.13;;;8.70;99.90;;;;;;5027489;28;20204;-76
2023/03/21 06:14:17;;;;;;;5.82;4.97;;;8.80;99.90;;;;;;5025690;28;20235;-76
2023/03/21 06:16:43;;;;;;;8.07;5.55;;;8.80;99.90;;;;;;5026054;28;20239;-78
2023/03/21 06:19:09;;;;;;;6.22;5.72;;;8.80;99.90;;;;;;5029463;28;20646;-75
2023/03/21 06:21:35;;;;;;;9.57;5.85;;;8.90;99.90;;;;;;5029621;28;20213;-77
2023/03/21 06:24:00;;;;;;;8.45;6.28;;;8.90;99.90;;;;;;5023170;28;20191;-77
2023/03/21 06:26:26;;;;;;;7.15;5.75;;;9.00;99.90;;;;;;5026143;28;20264;-77
2023/03/21 06:28:52;;;;;;;6.68;6.07;;;9.20;99.90;;;;;;5033103;28;20183;-78
2023/03/21 06:31:21;;;;;;;6.35;5.30;;;9.30;99.90;;;;;;5026600;28;20212;-75
2023/03/21 06:33:47;;;;;;;6.20;5.65;;;9.50;99.90;;;;;;5022556;28;20203;-75
2023/03/21 06:36:13;;;;;;;6.50;5.65;;;9.60;99.90;;;;;;5024283;28;20180;-76
2023/03/21 06:38:38;;;;;;;6.07;5.57;;;9.80;99.90;;;;;;5023700;28;20269;-75
2023/03/21 06:41:05;;;;;;;6.80;6.20;;;9.90;99.90;;;;;;5028916;28;20208;-75
2023/03/21 06:43:30;;;;;;;6.32;5.65;;;10.10;99.90;;;;;;5025304;28;20180;-76
2023/03/21 06:45:57;;;;;;;6.00;5.07;;;10.30;99.90;;;;;;5031925;28;20183;-76
2023/03/21 06:48:22;;;;;;;6.13;5.53;;;10.40;99.90;;;;;;5032655;28;20191;-76
2023/03/21 06:50:49;;;;;;;8.00;5.40;;;10.40;99.90;;;;;;5033094;28;20291;-76
2023/03/21 06:53:16;;;;;;;8.57;5.45;;;10.50;99.90;;;;;;5029514;28;20187;-77
2023/03/21 06:55:42;;;;;;;5.90;4.97;;;10.60;99.90;;;;;;5028511;28;20189;-78
2023/03/21 06:58:07;;;;;;;5.65;5.15;;;10.80;99.90;;;;;;5020964;28;20205;-77
2023/03/21 07:00:33;;;;;;;12.75;5.95;;;10.90;99.90;;;;;;5027076;28;20575;-77
2023/03/21 07:03:00;;;;;;;6.22;5.70;;;11.10;99.90;;;;;;5020705;28;20192;-76
2023/03/21 07:05:26;;;;;;;5.55;5.15;;;11.20;99.90;;;;;;5029496;28;20681;-75
2023/03/21 07:07:52;;;;;;;5.95;5.03;;;11.30;99.90;;;;;;5028291;28;20267;-77
2023/03/21 07:10:18;;;;;;;6.63;5.40;;;11.30;99.90;;;;;;5023703;28;20185;-75
2023/03/21 07:12:43;;;;;;;6.05;5.53;;;11.20;99.90;;;;;;5024875;28;20652;-76
2023/03/21 07:15:10;;;;;;;6.68;5.50;;;11.20;99.90;;;;;;5036694;28;20263;-76
2023/03/21 07:17:41;;;;;;;10.38;4.82;;;11.30;99.90;;;;;;5032055;28;20192;-77
2023/03/21 07:20:08;;;;;;;5.78;5.30;;;11.30;99.90;;;;;;5030536;28;20189;-77
2023/03/21 07:22:34;;;;;;;6.32;5.72;;;11.40;99.90;;;;;;5034266;28;20185;-77
2023/03/21 07:25:00;;;;;;;5.93;5.32;;;11.40;99.90;;;;;;5030676;28;20185;-77
2023/03/21 07:27:26;;;;;;;6.72;5.50;;;11.40;99.90;;;;;;5030977;28;20605;-76
2023/03/21 07:29:58;;;;;;;5.85;5.35;;;11.50;99.90;;;;;;5038308;28;20652;-77
2023/03/21 07:32:46;;;;;;;5.50;5.00;;;11.50;99.90;;;;;;5036144;28;20208;-78
2023/03/21 07:36:33;;;;;;;5.90;4.90;;;11.60;99.90;;;;;;5037088;28;20193;-80
2023/03/21 07:39:46;;;;;;;6.57;4.72;;;11.60;99.90;;;;;;5001371;28;20798;-81
2023/03/21 07:45:57;;;;;;;15.77;7.93;;;11.60;99.90;;;;;;5025779;28;20232;-80
2023/03/21 07:48:23;;;;;;;6.30;5.35;;;11.40;99.90;;;;;;5042587;28;20188;-81
2023/03/21 07:50:51;;;;;;;9.73;6.03;;;11.30;99.90;;;;;;5047640;28;20208;-81
2023/03/21 07:56:29;;;;;;;6.00;5.40;;;11.30;99.90;;;;;;5029793;28;20998;-78
2023/03/21 07:58:55;;;;;;;7.43;6.05;;;11.30;99.90;;;;;;5029073;28;20204;-78
2023/03/21 08:01:20;;;;;;;8.18;5.72;;;11.20;99.90;;;;;;5033050;28;20227;-78
2023/03/21 08:03:46;;;;;;;8.60;5.90;;;11.20;99.90;;;;;;5043643;28;20169;-77
2023/03/21 08:06:14;;;;;;;6.07;5.57;;;11.10;99.90;;;;;;5033199;28;20192;-77
2023/03/21 08:08:43;;;;;;;6.15;5.47;;;11.10;99.90;;;;;;5033325;28;20184;-77
2023/03/21 08:11:09;;;;;;;7.30;6.38;;;11.10;99.90;;;;;;5036067;28;20244;-78
2023/03/21 08:13:35;;;;;;;7.40;6.20;;;11.10;99.90;;;;;;5034904;28;20452;-77
2023/03/21 08:16:10;;;;;;;5.50;5.05;;;11.20;99.90;;;;;;5029079;28;20181;-78
2023/03/21 08:18:35;;;;;;;5.53;5.00;;;11.20;99.90;;;;;;5022383;28;20211;-77
2023/03/21 08:21:04;;;;;;;6.82;6.07;;;11.40;99.90;;;;;;5038111;28;20193;-77
2023/03/21 08:23:30;;;;;;;6.28;5.70;;;11.40;99.90;;;;;;5032330;28;20180;-77
2023/03/21 08:25:56;;;;;;;6.47;5.63;;;11.60;99.90;;;;;;5031286;28;20175;-76
2023/03/21 08:28:22;;;;;;;7.57;6.05;;;11.60;99.90;;;;;;5029387;28;20190;-76
2023/03/21 08:30:49;;;;;;;6.63;5.53;;;11.80;99.90;;;;;;5029323;28;20699;-76
2023/03/21 08:33:17;;;;;;;5.97;5.40;;;12.10;99.90;;;;;;5027575;28;20187;-76
2023/03/21 08:35:55;;;;;;;5.53;5.03;;;12.50;99.90;;;;;;5031883;28;20273;-78
2023/03/21 08:38:28;;;;;;;5.60;5.05;;;12.70;99.90;;;;;;5040242;28;20208;-79
2023/03/21 08:41:00;;;;;;;6.25;5.65;;;12.90;99.90;;;;;;5045263;28;20196;-80
2023/03/21 08:43:26;;;;;;;6.05;5.30;;;13.00;99.90;;;;;;5043910;28;20554;-80
2023/03/21 08:45:58;;;;;;;6.45;5.30;;;12.90;99.90;;;;;;5033955;28;20254;-79
2023/03/21 08:48:24;;;;;;;6.95;5.40;;;12.90;99.90;;;;;;5043041;28;20184;-80
2023/03/21 08:51:00;;;;;;;7.43;5.05;;;12.90;99.90;;;;;;5048131;28;20201;-80
2023/03/21 08:53:25;;;;;;;3.67;3.38;;;13.10;99.90;;;;;;5047206;28;20192;-78
2023/03/21 08:55:51;;;;;;;4.30;3.90;;;13.20;99.90;;;;;;5044767;28;20238;-80
2023/03/21 08:58:17;;;;;;;5.25;4.60;;;13.50;99.90;;;;;;5041239;28;20212;-85
2023/03/21 09:00:49;;;;;;;4.38;3.97;;;14.30;99.90;;;;;;5046916;28;20219;-79
2023/03/21 09:03:15;;;;;;;4.40;4.03;;;16.20;99.90;;;;;;5039391;28;20264;-80
2023/03/21 09:05:44;;;;;;;5.57;3.80;;;18.00;98.60;;;;;;5045552;28;20325;-78
2023/03/21 09:08:11;;;;;;;4.57;3.95;;;19.30;94.50;;;;;;5039418;28;20195;-80
2023/03/21 09:10:37;;;;;;;3.88;3.47;;;20.70;89.90;;;;;;5039975;28;20200;-79
2023/03/21 09:13:03;;;;;;;6.13;3.35;;;21.70;80.00;;;;;;5041471;28;20584;-79
2023/03/21 09:15:28;;;;;;;7.00;3.10;;;21.80;74.90;;;;;;5040543;28;20208;-79
2023/03/21 09:17:57;;;;;;;3.70;3.00;;;21.80;68.70;;;;;;5041015;28;20208;-83
2023/03/21 09:20:29;;;;;;;3.55;3.13;;;20.80;70.70;;;;;;5044833;28;20215;-81
2023/03/21 09:22:57;;;;;;;2.90;2.60;;;20.30;71.90;;;;;;5037766;28;20183;-81
2023/03/21 09:25:23;;;;;;;3.70;3.03;;;21.40;71.00;;;;;;5033461;28;20208;-81
2023/03/21 09:27:50;;;;;;;2.38;2.17;;;23.10;64.70;;;;;;5039212;28;20191;-81
2023/03/21 09:30:18;;;;;;;2.17;1.98;;;24.70;58.50;;;;;;5038843;28;20226;-81
2023/03/21 09:32:47;;;;;;;4.25;1.90;;;25.80;54.30;;;;;;5030845;28;20193;-79
2023/03/21 09:35:17;;;;;;;2.85;2.13;;;26.90;53.10;;;;;;5030090;28;20198;-79
2023/03/21 09:37:44;;;;;;;3.15;1.80;;;28.00;48.10;;;;;;5035610;28;20744;-77
2023/03/21 09:40:39;;;;;;;2.20;2.00;;;28.90;47.70;;;;;;5020283;28;20177;-77
2023/03/21 09:43:20;;;;;;;2.63;2.35;;;29.40;45.40;;;;;;5017547;28;20216;-79
2023/03/21 09:46:12;;;;;;;2.60;2.40;;;29.60;45.10;;;;;;5029387;28;20181;-79
2023/03/21 09:48:40;;;;;;;1.90;1.80;;;29.20;44.70;;;;;;5025205;28;20197;-79
2023/03/21 09:51:12;;;;;;;2.83;2.05;;;28.90;43.40;;;;;;5030547;28;20224;-78
2023/03/21 09:53:41;;;;;;;1.88;1.63;;;28.70;45.00;;;;;;5028325;28;20585;-79
2023/03/21 09:56:11;;;;;;;1.83;1.70;;;28.90;43.50;;;;;;5029210;28;20180;-79
2023/03/21 09:58:42;;;;;;;2.00;1.80;;;29.30;44.90;;;;;;5020970;28;20304;-78
2023/03/21 10:01:21;;;;;;;3.95;2.28;;;29.80;43.90;;;;;;5030235;28;20576;-77
2023/03/21 10:03:48;;;;;;;3.22;1.80;;;30.50;41.70;;;;;;5021504;28;20226;-78
2023/03/21 10:06:15;;;;;;;3.35;2.15;;;31.00;40.80;;;;;;5031399;28;20176;-79
2023/03/21 10:08:45;;;;;;;3.63;1.95;;;31.30;40.90;;;;;;5024480;28;20206;-79
2023/03/21 10:11:36;;;;;;;2.03;1.80;;;32.00;40.50;;;;;;5023862;28;20687;-79
2023/03/21 10:14:42;;;;;;;1.95;1.80;;;33.00;38.40;;;;;;5024430;28;20192;-78
2023/03/21 10:17:14;;;;;;;2.20;1.88;;;33.60;37.10;;;;;;5024188;28;20214;-78
2023/03/21 10:19:45;;;;;;;3.13;1.95;;;33.50;37.80;;;;;;5025811;28;20284;-78
2023/03/21 10:22:11;;;;;;;3.05;2.03;;;33.60;36.80;;;;;;5033026;28;20214;-80
2023/03/21 10:24:37;;;;;;;2.65;1.75;;;33.30;37.10;;;;;;5033728;28;20233;-78
2023/03/21 10:27:03;;;;;;;2.58;1.80;;;32.90;38.10;;;;;;5031835;28;20599;-79
2023/03/21 10:29:42;;;;;;;2.50;1.75;;;33.50;37.60;;;;;;5033076;28;20188;-79
2023/03/21 10:32:14;;;;;;;1.67;1.58;;;34.20;36.60;;;;;;5030411;28;20204;-79
2023/03/21 10:34:49;;;;;;;1.70;1.60;;;34.20;35.80;;;;;;5032991;28;20195;-78
2023/03/21 10:37:15;;;;;;;2.50;2.10;;;33.50;37.20;;;;;;5025400;28;20199;-78
2023/03/21 10:39:53;;;;;;;1.60;1.50;;;34.30;36.50;;;;;;5034494;28;20258;-79
2023/03/21 10:42:25;;;;;;;2.53;1.80;;;35.40;34.60;;;;;;5027589;28;20199;-77
2023/03/21 10:44:54;;;;;;;1.85;1.55;;;35.60;34.30;;;;;;5032176;28;20176;-77
2023/03/21 10:47:23;;;;;;;2.70;1.77;;;34.20;35.30;;;;;;5030012;28;20672;-77
2023/03/21 10:49:48;;;;;;;3.28;2.05;;;33.10;36.60;;;;;;5029210;28;20291;-79
2023/03/21 10:52:20;;;;;;;2.47;1.90;;;32.60;37.30;;;;;;5028728;28;20291;-79
2023/03/21 10:54:47;;;;;;;2.95;2.15;;;33.00;36.80;;;;;;5030135;28;20187;-79
2023/03/21 10:57:20;;;;;;;3.03;1.88;;;33.30;36.90;;;;;;5032357;28;20215;-79
2023/03/21 10:59:49;;;;;;;2.72;2.00;;;33.60;36.60;;;;;;5027815;28;20176;-79
2023/03/21 11:02:36;;;;;;;2.13;1.85;;;33.90;36.80;;;;;;5029466;28;20204;-78
2023/03/21 11:05:07;;;;;;;2.92;1.85;;;34.80;35.60;;;;;;5029168;28;20172;-78
2023/03/21 11:07:35;;;;;;;2.50;2.20;;;35.20;36.80;;;;;;5032584;28;20215;-78
2023/03/21 11:10:12;;;;;;;2.50;2.28;;;36.00;36.40;;;;;;5032512;28;20184;-78
2023/03/21 11:12:40;;;;;;;1.60;1.50;;;36.20;36.30;;;;;;5029520;28;20249;-78
2023/03/21 11:15:36;;;;;;;1.60;1.48;;;35.90;33.90;;;;;;5031562;28;20199;-80
2023/03/21 11:18:39;;;;;;;2.20;2.00;;;35.00;34.90;;;;;;5027440;28;20204;-79
2023/03/21 11:21:08;;;;;;;1.92;1.83;;;34.30;34.80;;;;;;5007404;28;20206;-79
2023/03/21 11:23:40;;;;;;;2.30;2.10;;;33.90;36.70;;;;;;5023111;28;20529;-79
2023/03/21 11:26:10;;;;;;;3.00;2.80;;;34.30;36.70;;;;;;5032241;28;20544;-79
2023/03/21 11:28:39;;;;;;;2.67;2.40;;;34.20;36.50;;;;;;5034262;28;20176;-78
2023/03/21 11:31:08;;;;;;;2.88;2.67;;;33.00;37.30;;;;;;5031011;28;20227;-79
2023/03/21 11:33:44;;;;;;;3.08;2.83;;;32.90;37.60;;;;;;5028469;28;20226;-77
2023/03/21 11:36:19;;;;;;;3.28;3.08;;;33.30;37.40;;;;;;5027611;28;20180;-77
2023/03/21 11:38:55;;;;;;;3.10;2.90;;;32.90;38.10;;;;;;5029364;28;20209;-79
2023/03/21 11:41:32;;;;;;;3.65;3.28;;;32.90;38.40;;;;;;5033630;28;20727;-78
2023/03/21 11:43:59;;;;;;;3.25;3.05;;;33.40;37.60;;;;;;5027539;28;20186;-77
2023/03/21 11:46:30;;;;;;;2.55;2.35;;;33.90;39.00;;;;;;5023610;28;20214;-80
2023/03/21 11:48:57;;;;;;;3.13;2.80;;;34.40;37.80;;;;;;5035332;28;20179;-79
2023/03/21 11:51:44;;;;;;;2.45;2.25;;;34.30;36.50;;;;;;5038858;28;20564;-79
2023/03/21 11:54:38;;;;;;;2.88;2.67;;;34.70;35.90;;;;;;5029147;28;20267;-78
2023/03/21 11:57:15;;;;;;;2.72;2.55;;;34.30;36.10;;;;;;5025904;28;20179;-76
2023/03/21 12:00:00;;;;;;;3.00;2.70;;;34.70;36.50;;;;;;5028216;28;20169;-75
2023/03/21 12:03:07;;;;;;;2.40;2.20;;;34.50;36.80;;;;;;5034217;28;20216;-71
2023/03/21 12:05:51;;;;;;;2.67;2.22;;;34.40;36.60;;;;;;5029242;28;20679;-72
2023/03/21 12:08:19;;;;;;;2.55;2.20;;;34.30;37.10;;;;;;5025899;28;20187;-72
2023/03/21 12:10:56;;;;;;;2.78;2.58;;;34.40;37.10;;;;;;5028984;28;20227;-72
2023/03/21 12:13:21;;;;;;;3.03;2.53;;;35.10;35.80;;;;;;5035005;28;20625;-72
2023/03/21 12:16:07;;;;;;;2.83;2.63;;;35.60;35.60;;;;;;5026100;28;20199;-72
2023/03/21 12:18:57;;;;;;;2.60;2.40;;;35.60;37.00;;;;;;5024096;28;20210;-72
2023/03/21 12:21:33;;;;;;;2.85;2.65;;;35.30;36.50;;;;;;5033885;28;20572;-72
2023/03/21 12:24:11;;;;;;;2.58;2.40;;;35.40;36.20;;;;;;5027635;28;20699;-71
2023/03/21 12:27:05;;;;;;;2.45;2.35;;;35.40;36.90;;;;;;5030910;28;20760;-73
2023/03/21 12:29:34;;;;;;;2.92;2.63;;;35.90;35.30;;;;;;5019623;28;20196;-72
2023/03/21 12:32:24;;;;;;;2.90;2.70;;;36.10;35.10;;;;;;5027661;28;20203;-72
2023/03/21 12:34:53;;;;;;;2.60;2.40;;;35.50;35.10;;;;;;5029373;28;20200;-73
2023/03/21 12:37:40;;;;;;;3.13;2.80;;;34.80;35.80;;;;;;5030845;28;20558;-72
2023/03/21 12:40:43;;;;;;;3.13;2.92;;;34.30;36.40;;;;;;5026621;28;20172;-73
2023/03/21 12:43:30;;;;;;;2.22;2.13;;;33.70;36.80;;;;;;5029868;28;20234;-73
2023/03/21 12:46:18;;;;;;;2.80;2.40;;;33.90;36.60;;;;;;5032347;28;20180;-72
2023/03/21 12:48:46;;;;;;;2.22;2.03;;;33.80;36.70;;;;;;5024088;28;20173;-72
2023/03/21 12:51:15;;;;;;;2.70;2.50;;;33.40;36.90;;;;;;5036567;28;20235;-72
2023/03/21 12:53:44;;;;;;;2.72;2.53;;;32.70;37.30;;;;;;5029902;28;20554;-73
2023/03/21 12:56:15;;;;;;;2.55;2.35;;;32.40;38.10;;;;;;5031280;28;20565;-73
2023/03/21 12:58:56;;;;;;;2.10;1.80;;;32.20;39.10;;;;;;5021941;28;20216;-71
2023/03/21 13:01:23;;;;;;;2.33;2.22;;;32.70;38.00;;;;;;5023375;28;20212;-72
2023/03/21 13:04:14;;;;;;;2.55;2.45;;;32.40;38.10;;;;;;5032607;28;20179;-73
2023/03/21 13:06:40;;;;;;;2.78;2.67;;;32.10;38.40;;;;;;5015909;28;20526;-73
2023/03/21 13:09:16;;;;;;;2.33;2.22;;;31.70;39.10;;;;;;5027000;28;20193;-73
2023/03/21 13:11:44;;;;;;;2.55;2.20;;;30.90;39.90;;;;;;5030736;28;20717;-72
2023/03/21 13:14:09;;;;;;;2.50;2.33;;;31.20;39.60;;;;;;5025958;28;20195;-72
2023/03/21 13:16:42;;;;;;;2.63;2.42;;;31.10;40.00;;;;;;5024237;28;20183;-72
2023/03/21 13:19:29;;;;;;;4.72;2.60;;;30.80;40.20;;;;;;5022215;28;20224;-72
2023/03/21 13:22:17;;;;;;;2.40;2.30;;;30.70;40.20;;;;;;5026095;28;20208;-72